createdAt,value
2022-12-24T00:00:17.091Z,2.83
2022-12-24T00:02:19.624Z,3.95
2022-12-24T00:04:21.151Z,2.08
2022-12-24T00:06:23.927Z,3.75
2022-12-24T00:08:25.651Z,4.03
2022-12-24T00:10:30.514Z,2.70
2022-12-24T00:12:32.272Z,4.30
2022-12-24T00:14:33.861Z,2.15
2022-12-24T00:16:35.618Z,2.13
2022-12-24T00:18:43.333Z,2.63
2022-12-24T00:20:48.395Z,2.55
2022-12-24T00:22:52.876Z,2.25
2022-12-24T00:24:54.539Z,1.90
2022-12-24T00:26:58.898Z,2.72
2022-12-24T00:29:00.799Z,3.55
2022-12-24T00:31:12.492Z,2.65
2022-12-24T00:33:19.528Z,3.20
2022-12-24T00:35:25.847Z,2.00
2022-12-24T00:37:27.346Z,4.43
2022-12-24T00:39:28.903Z,8.07
2022-12-24T00:41:33.497Z,12.38
2022-12-24T00:43:35.432Z,12.65
2022-12-24T00:45:39.810Z,13.70
2022-12-24T00:47:41.677Z,11.10
2022-12-24T00:49:43.313Z,10.00
2022-12-24T00:51:44.829Z,9.38
2022-12-24T00:53:46.607Z,9.20
2022-12-24T00:55:48.312Z,6.72
2022-12-24T00:57:49.902Z,6.28
2022-12-24T00:59:51.381Z,4.90
2022-12-24T01:01:53.123Z,7.20
2022-12-24T01:04:21.606Z,6.32
2022-12-24T01:06:23.156Z,5.72
2022-12-24T01:08:24.707Z,3.72
2022-12-24T01:10:26.325Z,4.68
2022-12-24T01:12:30.971Z,3.65
2022-12-24T01:14:32.579Z,3.30
2022-12-24T01:16:34.372Z,3.33
2022-12-24T01:18:35.956Z,4.18
2022-12-24T01:20:37.914Z,5.15
2022-12-24T01:22:39.536Z,3.10
2022-12-24T01:24:41.828Z,2.13
2022-12-24T01:26:45.574Z,3.33
2022-12-24T01:28:47.202Z,3.83
2022-12-24T01:30:49.093Z,4.70
2022-12-24T01:32:50.692Z,5.13
2022-12-24T01:34:53.153Z,2.55
2022-12-24T01:36:56.699Z,3.38
2022-12-24T01:38:58.367Z,5.00
2022-12-24T01:41:18.290Z,3.45
2022-12-24T01:43:24.851Z,3.95
2022-12-24T01:45:43.926Z,2.42
2022-12-24T01:47:48.013Z,2.85
2022-12-24T01:50:02.963Z,3.25
2022-12-24T01:52:14.823Z,7.68
2022-12-24T01:54:25.603Z,3.70
2022-12-24T01:56:30.705Z,4.03
2022-12-24T01:58:36.104Z,4.47
2022-12-24T02:00:44.763Z,5.93
2022-12-24T02:02:48.453Z,4.85
2022-12-24T02:05:05.072Z,3.67
2022-12-24T02:07:06.812Z,4.13
2022-12-24T02:09:11.161Z,5.68
2022-12-24T02:11:20.178Z,4.60
2022-12-24T02:13:26.962Z,3.95
2022-12-24T02:15:38.167Z,6.05
2022-12-24T02:17:59.253Z,3.67
2022-12-24T02:20:15.362Z,4.32
2022-12-24T02:22:38.402Z,6.50
2022-12-24T02:25:04.616Z,3.22
2022-12-24T02:27:09.994Z,5.18
2022-12-24T02:29:34.410Z,6.57
2022-12-24T02:31:43.193Z,5.15
2022-12-24T02:33:59.803Z,6.00
2022-12-24T02:36:24.344Z,4.65
2022-12-24T02:38:31.618Z,4.15
2022-12-24T02:40:51.122Z,3.72
2022-12-24T02:42:58.507Z,4.72
2022-12-24T02:45:05.462Z,6.07
2022-12-24T02:47:10.075Z,3.75
2022-12-24T02:49:14.677Z,4.88
2022-12-24T02:51:16.906Z,4.07
2022-12-24T02:53:18.433Z,3.78
2022-12-24T02:55:43.496Z,4.72
2022-12-24T02:57:56.631Z,5.10
2022-12-24T03:00:15.484Z,4.85
2022-12-24T03:02:43.569Z,4.28
2022-12-24T03:05:08.662Z,5.35
2022-12-24T03:07:21.262Z,5.10
2022-12-24T03:09:32.560Z,3.88
2022-12-24T03:11:38.691Z,4.38
2022-12-24T03:13:42.541Z,6.00
2022-12-24T03:15:46.186Z,4.15
2022-12-24T03:17:52.002Z,7.03
2022-12-24T03:19:55.051Z,5.93
2022-12-24T03:21:59.889Z,3.35
2022-12-24T03:24:02.097Z,4.20
2022-12-24T03:26:10.964Z,3.60
2022-12-24T03:28:17.622Z,5.70
2022-12-24T03:30:20.482Z,6.93
2022-12-24T03:32:54.476Z,3.88
2022-12-24T03:34:59.171Z,4.15
2022-12-24T03:37:00.884Z,3.25
2022-12-24T03:39:02.331Z,6.32
2022-12-24T03:41:04.345Z,6.07
2022-12-24T03:43:05.887Z,9.50
2022-12-24T03:45:08.223Z,5.35
2022-12-24T03:47:09.729Z,2.55
2022-12-24T03:49:11.309Z,4.97
2022-12-24T03:51:24.728Z,4.22
2022-12-24T03:53:29.343Z,7.93
2022-12-24T03:55:30.912Z,4.72
2022-12-24T03:57:32.589Z,4.13
2022-12-24T03:59:35.709Z,3.80
2022-12-24T04:01:37.522Z,5.35
2022-12-24T04:03:39.475Z,6.20
2022-12-24T04:05:41.474Z,5.65
2022-12-24T04:07:43.140Z,3.40
2022-12-24T04:09:44.608Z,5.90
2022-12-24T04:11:46.401Z,6.63
2022-12-24T04:13:47.819Z,6.60
2022-12-24T04:16:21.676Z,3.80
2022-12-24T04:18:23.168Z,5.88
2022-12-24T04:20:24.745Z,4.07
2022-12-24T04:22:26.722Z,4.93
2022-12-24T04:24:28.225Z,4.97
2022-12-24T04:26:30.093Z,5.03
2022-12-24T04:28:33.891Z,5.30
2022-12-24T04:30:35.560Z,3.63
2022-12-24T04:32:37.180Z,5.75
2022-12-24T04:34:39.520Z,6.30
2022-12-24T04:36:41.062Z,4.93
2022-12-24T04:38:46.375Z,4.25
2022-12-24T04:41:10.679Z,4.78
2022-12-24T04:43:14.794Z,4.25
2022-12-24T04:45:17.571Z,3.33
2022-12-24T04:47:19.187Z,7.72
2022-12-24T04:49:20.674Z,6.40
2022-12-24T04:51:28.808Z,3.88
2022-12-24T04:53:32.013Z,5.78
2022-12-24T04:55:33.741Z,6.25
2022-12-24T04:57:35.747Z,5.30
2022-12-24T04:59:37.248Z,4.05
2022-12-24T05:01:38.849Z,5.65
2022-12-24T05:03:40.758Z,4.78
2022-12-24T05:05:45.349Z,3.92
2022-12-24T05:07:47.856Z,3.25
2022-12-24T05:09:49.459Z,4.88
2022-12-24T05:11:50.976Z,2.85
2022-12-24T05:13:52.491Z,6.13
2022-12-24T05:15:54.432Z,3.45
2022-12-24T05:17:56.030Z,5.80
2022-12-24T05:19:57.583Z,5.30
2022-12-24T05:22:17.576Z,6.15
2022-12-24T05:24:37.592Z,4.07
2022-12-24T05:26:53.277Z,5.05
2022-12-24T05:28:57.176Z,4.28
2022-12-24T05:30:58.900Z,2.42
2022-12-24T05:33:00.481Z,4.15
2022-12-24T05:35:01.950Z,3.92
2022-12-24T05:37:03.811Z,7.13
2022-12-24T05:39:11.381Z,6.43
2022-12-24T05:41:15.507Z,4.68
2022-12-24T05:43:17.351Z,6.30
2022-12-24T05:45:21.032Z,6.65
2022-12-24T05:47:24.919Z,6.80
2022-12-24T05:49:28.640Z,4.35
2022-12-24T05:51:30.197Z,6.00
2022-12-24T05:53:32.283Z,4.35
2022-12-24T05:55:37.522Z,3.72
2022-12-24T05:57:41.152Z,6.03
2022-12-24T05:59:42.728Z,4.57
2022-12-24T06:01:47.383Z,6.40
2022-12-24T06:03:52.140Z,6.80
2022-12-24T06:06:01.134Z,5.15
2022-12-24T06:08:02.816Z,6.65
2022-12-24T06:10:05.430Z,3.65
2022-12-24T06:12:07.165Z,5.63
2022-12-24T06:14:08.919Z,3.28
2022-12-24T06:16:18.895Z,2.88
2022-12-24T06:18:20.468Z,3.85
2022-12-24T06:20:22.077Z,5.25
2022-12-24T06:22:23.537Z,7.28
2022-12-24T06:24:25.343Z,4.18
2022-12-24T06:26:27.216Z,3.17
2022-12-24T06:28:29.986Z,4.40
2022-12-24T06:30:31.734Z,5.60
2022-12-24T06:32:35.685Z,4.13
2022-12-24T06:34:46.349Z,3.75
2022-12-24T06:36:48.035Z,4.03
2022-12-24T06:38:51.567Z,4.82
2022-12-24T06:40:53.164Z,5.63
2022-12-24T06:42:54.789Z,6.45
2022-12-24T06:45:02.244Z,7.78
2022-12-24T06:47:15.434Z,3.80
2022-12-24T06:49:17.050Z,6.05
2022-12-24T06:51:22.108Z,4.22
2022-12-24T06:53:23.703Z,3.22
2022-12-24T06:55:25.601Z,5.00
2022-12-24T06:57:27.595Z,4.47
2022-12-24T06:59:31.827Z,3.90
2022-12-24T07:01:33.674Z,3.90
2022-12-24T07:03:35.843Z,4.90
2022-12-24T07:05:37.472Z,5.40
2022-12-24T07:07:43.245Z,5.75
2022-12-24T07:09:44.770Z,7.03
2022-12-24T07:11:48.503Z,4.25
2022-12-24T07:13:50.124Z,4.05
2022-12-24T07:16:02.727Z,2.35
2022-12-24T07:18:04.459Z,3.45
2022-12-24T07:20:10.523Z,7.47
2022-12-24T07:22:16.259Z,4.20
2022-12-24T07:24:18.115Z,4.93
2022-12-24T07:26:19.878Z,4.40
2022-12-24T07:28:27.454Z,6.57
2022-12-24T07:30:29.865Z,6.03
2022-12-24T07:32:31.948Z,5.45
2022-12-24T07:34:33.871Z,6.03
2022-12-24T07:36:35.578Z,8.75
2022-12-24T07:38:38.028Z,6.28
2022-12-24T07:40:39.676Z,5.43
2022-12-24T07:42:41.214Z,4.68
2022-12-24T07:44:42.834Z,4.28
2022-12-24T07:46:44.810Z,6.85
2022-12-24T07:48:46.471Z,6.07
2022-12-24T07:50:50.338Z,4.88
2022-12-24T07:52:53.380Z,7.50
2022-12-24T07:54:55.435Z,6.70
2022-12-24T07:56:57.020Z,4.88
2022-12-24T07:58:58.522Z,5.63
2022-12-24T08:01:00.252Z,4.75
2022-12-24T08:03:01.876Z,5.82
2022-12-24T08:05:03.728Z,6.18
2022-12-24T08:07:06.793Z,7.70
2022-12-24T08:09:16.895Z,12.95
2022-12-24T08:11:18.831Z,7.05
2022-12-24T08:13:20.299Z,7.90
2022-12-24T08:15:21.919Z,9.68
2022-12-24T08:17:28.589Z,6.55
2022-12-24T08:19:33.751Z,7.28
2022-12-24T08:21:36.287Z,7.85
2022-12-24T08:23:39.204Z,6.75
2022-12-24T08:26:04.115Z,7.90
2022-12-24T08:28:05.986Z,6.30
2022-12-24T08:30:08.298Z,6.90
2022-12-24T08:32:09.877Z,6.05
2022-12-24T08:34:13.223Z,3.20
2022-12-24T08:36:14.914Z,7.72
2022-12-24T08:38:23.321Z,9.18
2022-12-24T08:40:25.015Z,8.15
2022-12-24T08:42:29.757Z,4.97
2022-12-24T08:44:31.355Z,7.10
2022-12-24T08:46:33.153Z,7.45
2022-12-24T08:48:35.246Z,6.45
2022-12-24T08:50:40.198Z,10.15
2022-12-24T08:52:41.873Z,5.97
2022-12-24T08:54:45.749Z,6.60
2022-12-24T08:56:47.816Z,10.50
2022-12-24T08:58:50.038Z,7.38
2022-12-24T09:00:51.823Z,6.97
2022-12-24T09:02:53.570Z,6.75
2022-12-24T09:04:55.256Z,11.23
2022-12-24T09:06:56.888Z,8.55
2022-12-24T09:08:58.987Z,9.43
2022-12-24T09:11:10.232Z,6.95
2022-12-24T09:13:14.903Z,7.18
2022-12-24T09:15:19.551Z,7.90
2022-12-24T09:17:21.684Z,7.38
2022-12-24T09:19:25.464Z,11.45
2022-12-24T09:21:30.527Z,11.88
2022-12-24T09:23:36.991Z,7.63
2022-12-24T09:25:45.245Z,9.32
2022-12-24T09:27:47.276Z,8.13
2022-12-24T09:29:49.093Z,9.23
2022-12-24T09:31:50.893Z,10.05
2022-12-24T09:33:55.742Z,8.57
2022-12-24T09:35:57.601Z,8.07
2022-12-24T09:38:04.814Z,9.38
2022-12-24T09:40:18.320Z,10.48
2022-12-24T09:42:42.870Z,6.97
2022-12-24T09:44:51.686Z,6.05
2022-12-24T09:46:54.714Z,11.35
2022-12-24T09:49:03.917Z,11.38
2022-12-24T09:51:11.884Z,9.40
2022-12-24T09:53:22.263Z,12.80
2022-12-24T09:55:50.732Z,10.55
2022-12-24T09:57:54.519Z,10.77
2022-12-24T09:59:56.123Z,11.00
2022-12-24T10:01:57.922Z,8.50
2022-12-24T10:04:13.766Z,9.50
2022-12-24T10:06:24.967Z,9.80
2022-12-24T10:08:36.623Z,11.75
2022-12-24T10:11:03.355Z,7.38
2022-12-24T10:13:48.656Z,9.73
2022-12-24T10:16:02.238Z,11.52
2022-12-24T10:18:03.951Z,8.32
2022-12-24T10:20:26.941Z,10.88
2022-12-24T10:22:48.880Z,9.75
2022-12-24T10:25:21.079Z,10.30
2022-12-24T10:27:29.028Z,9.70
2022-12-24T10:29:36.818Z,9.45
2022-12-24T10:31:52.552Z,11.38
2022-12-24T10:33:59.388Z,12.40
2022-12-24T10:36:09.881Z,11.23
2022-12-24T10:38:17.325Z,7.93
2022-12-24T10:40:42.753Z,12.48
2022-12-24T10:42:50.659Z,11.93
2022-12-24T10:45:03.105Z,10.93
2022-12-24T10:47:10.601Z,7.95
2022-12-24T10:49:17.806Z,11.02
2022-12-24T10:51:51.240Z,9.95
2022-12-24T10:54:00.784Z,12.00
2022-12-24T10:56:06.099Z,8.35
2022-12-24T10:58:15.824Z,9.55
2022-12-24T11:00:35.793Z,10.68
2022-12-24T11:02:40.129Z,11.10
2022-12-24T11:04:56.005Z,7.93
2022-12-24T11:07:04.480Z,8.43
2022-12-24T11:09:21.551Z,8.77
2022-12-24T11:11:23.989Z,12.77
2022-12-24T11:13:39.656Z,5.93
2022-12-24T11:15:41.594Z,9.77
2022-12-24T11:18:03.980Z,8.50
2022-12-24T11:20:17.208Z,11.13
2022-12-24T11:22:21.284Z,9.27
2022-12-24T11:24:32.461Z,11.15
2022-12-24T11:26:34.907Z,10.65
2022-12-24T11:28:37.206Z,11.45
2022-12-24T11:30:39.104Z,9.45
2022-12-24T11:33:10.843Z,8.45
2022-12-24T11:35:24.135Z,9.30
2022-12-24T11:37:28.912Z,6.90
2022-12-24T11:39:39.135Z,7.78
2022-12-24T11:41:41.137Z,9.82
2022-12-24T11:43:47.588Z,9.13
2022-12-24T11:45:52.924Z,9.68
2022-12-24T11:47:56.278Z,10.48
2022-12-24T11:50:37.614Z,8.65
2022-12-24T11:52:43.136Z,6.80
2022-12-24T11:55:18.575Z,8.60
2022-12-24T11:57:29.069Z,11.05
2022-12-24T11:59:38.100Z,10.05
2022-12-24T12:01:54.250Z,10.35
2022-12-24T12:04:09.603Z,5.70
2022-12-24T12:06:29.721Z,12.82
2022-12-24T12:08:32.949Z,7.47
2022-12-24T12:10:39.186Z,9.52
2022-12-24T12:12:45.447Z,10.75
2022-12-24T12:15:12.704Z,10.43
2022-12-24T12:17:43.086Z,8.93
2022-12-24T12:20:32.744Z,7.05
2022-12-24T12:22:44.854Z,9.88
2022-12-24T12:24:59.315Z,9.05
2022-12-24T12:27:20.225Z,11.93
2022-12-24T12:29:31.085Z,9.55
2022-12-24T12:31:45.179Z,8.07
2022-12-24T12:33:51.348Z,8.50
2022-12-24T12:35:55.723Z,12.57
2022-12-24T12:38:01.351Z,11.65
2022-12-24T12:40:03.926Z,9.85
2022-12-24T12:42:11.836Z,9.25
2022-12-24T12:44:34.221Z,11.98
2022-12-24T12:46:38.559Z,10.82
2022-12-24T12:48:40.413Z,12.23
2022-12-24T12:50:48.604Z,10.02
2022-12-24T12:52:59.208Z,11.02
2022-12-24T12:55:24.174Z,11.05
2022-12-24T12:57:33.072Z,8.98
2022-12-24T12:59:49.190Z,10.75
2022-12-24T13:01:56.851Z,10.93
2022-12-24T13:04:20.621Z,11.55
2022-12-24T13:06:40.505Z,9.82
2022-12-24T13:09:02.990Z,10.25
2022-12-24T13:11:42.412Z,8.88
2022-12-24T13:14:22.208Z,9.15
2022-12-24T13:16:46.574Z,9.52
2022-12-24T13:18:53.875Z,13.35
2022-12-24T13:20:55.592Z,9.15
2022-12-24T13:23:12.795Z,12.30
2022-12-24T13:25:23.535Z,9.15
2022-12-24T13:27:28.184Z,9.70
2022-12-24T13:29:38.727Z,11.27
2022-12-24T13:31:40.544Z,8.45
2022-12-24T13:33:41.973Z,9.15
2022-12-24T13:36:18.947Z,7.22
2022-12-24T13:38:31.228Z,6.90
2022-12-24T13:40:36.015Z,6.88
2022-12-24T13:42:49.978Z,12.25
2022-12-24T13:45:30.129Z,8.70
2022-12-24T13:47:32.736Z,8.68
2022-12-24T13:49:40.931Z,10.93
2022-12-24T13:51:47.205Z,8.98
2022-12-24T13:53:49.662Z,10.85
2022-12-24T13:55:56.976Z,8.93
2022-12-24T13:58:02.899Z,8.40
2022-12-24T14:00:28.256Z,9.82
2022-12-24T14:02:35.899Z,9.32
2022-12-24T14:04:42.189Z,8.20
2022-12-24T14:06:51.652Z,9.48
2022-12-24T14:08:57.905Z,7.82
2022-12-24T14:11:05.814Z,7.32
2022-12-24T14:13:39.098Z,11.13
2022-12-24T14:16:03.159Z,10.27
2022-12-24T14:18:05.700Z,7.15
2022-12-24T14:20:10.371Z,10.15
2022-12-24T14:22:13.819Z,9.20
2022-12-24T14:24:27.605Z,11.32
2022-12-24T14:26:44.489Z,11.77
2022-12-24T14:28:56.929Z,8.13
2022-12-24T14:31:04.219Z,9.38
2022-12-24T14:33:05.994Z,7.57
2022-12-24T14:35:13.284Z,7.80
2022-12-24T14:37:16.744Z,8.35
2022-12-24T14:39:22.338Z,8.48
2022-12-24T14:41:41.081Z,9.55
2022-12-24T14:44:09.264Z,9.70
2022-12-24T14:46:41.420Z,10.25
2022-12-24T14:49:06.947Z,8.43
2022-12-24T14:51:26.863Z,7.05
2022-12-24T14:53:49.212Z,9.45
2022-12-24T14:55:51.444Z,9.50
2022-12-24T14:58:26.016Z,8.75
2022-12-24T15:00:27.731Z,10.20
2022-12-24T15:02:39.588Z,11.82
2022-12-24T15:04:41.294Z,10.60
2022-12-24T15:06:56.692Z,9.13
2022-12-24T15:08:58.471Z,11.57
2022-12-24T15:11:03.800Z,10.82
2022-12-24T15:13:21.596Z,10.10
2022-12-24T15:15:24.391Z,8.60
2022-12-24T15:17:27.381Z,12.02
2022-12-24T15:19:33.649Z,11.70
2022-12-24T15:21:44.034Z,9.45
2022-12-24T15:23:49.199Z,9.45
2022-12-24T15:25:53.304Z,12.95
2022-12-24T15:27:55.586Z,12.45
2022-12-24T15:29:58.047Z,15.98
2022-12-24T15:32:04.873Z,14.40
2022-12-24T15:34:27.399Z,14.30
2022-12-24T15:36:37.616Z,15.60
2022-12-24T15:38:53.858Z,15.10
2022-12-24T15:40:56.443Z,16.60
2022-12-24T15:42:58.195Z,11.45
2022-12-24T15:45:07.595Z,17.67
2022-12-24T15:47:17.982Z,18.40
2022-12-24T15:49:19.832Z,18.13
2022-12-24T15:51:24.524Z,18.95
2022-12-24T15:53:31.130Z,20.25
2022-12-24T15:55:41.146Z,17.40
2022-12-24T15:57:43.493Z,20.70
2022-12-24T15:59:52.770Z,20.05
2022-12-24T16:02:35.720Z,18.77
2022-12-24T16:04:38.847Z,18.27
2022-12-24T16:07:06.809Z,13.95
2022-12-24T16:09:42.951Z,14.85
2022-12-24T16:11:44.667Z,12.00
2022-12-24T16:13:59.397Z,12.77
2022-12-24T16:16:04.342Z,12.05
2022-12-24T16:18:06.084Z,8.90
2022-12-24T16:20:19.836Z,7.60
2022-12-24T16:22:38.323Z,10.38
2022-12-24T16:24:43.030Z,9.32
2022-12-24T16:26:44.643Z,8.52
2022-12-24T16:28:46.414Z,11.35
2022-12-24T16:30:51.312Z,9.57
2022-12-24T16:32:53.231Z,11.20
2022-12-24T16:34:55.086Z,13.63
2022-12-24T16:36:57.875Z,13.85
2022-12-24T16:39:18.239Z,12.70
2022-12-24T16:41:21.050Z,11.32
2022-12-24T16:43:43.460Z,13.38
2022-12-24T16:45:47.300Z,8.93
2022-12-24T16:47:49.285Z,9.65
2022-12-24T16:49:51.826Z,8.23
2022-12-24T16:51:53.323Z,8.75
2022-12-24T16:53:54.986Z,8.80
2022-12-24T16:55:56.813Z,8.23
2022-12-24T16:58:01.209Z,8.00
2022-12-24T17:00:07.453Z,7.95
2022-12-24T17:02:15.032Z,8.70
2022-12-24T17:04:20.049Z,5.50
2022-12-24T17:06:21.704Z,9.98
2022-12-24T17:08:23.176Z,7.80
2022-12-24T17:10:26.753Z,10.18
2022-12-24T17:12:28.459Z,13.98
2022-12-24T17:14:30.143Z,13.88
2022-12-24T17:16:31.821Z,13.52
2022-12-24T17:18:33.331Z,16.10
2022-12-24T17:20:34.922Z,18.67
2022-12-24T17:22:36.798Z,17.25
2022-12-24T17:24:38.485Z,21.48
2022-12-24T17:26:43.161Z,20.65
2022-12-24T17:28:44.616Z,20.77
2022-12-24T17:30:46.904Z,21.27
2022-12-24T17:32:48.526Z,23.83
2022-12-24T17:34:51.334Z,17.00
2022-12-24T17:36:54.878Z,19.02
2022-12-24T17:38:56.816Z,17.02
2022-12-24T17:41:02.929Z,19.13
2022-12-24T17:43:04.837Z,15.52
2022-12-24T17:45:06.781Z,19.95
2022-12-24T17:47:08.613Z,15.15
2022-12-24T17:49:10.177Z,15.52
2022-12-24T17:51:18.209Z,13.30
2022-12-24T17:53:19.847Z,13.68
2022-12-24T17:55:23.772Z,12.77
2022-12-24T17:57:25.364Z,11.35
2022-12-24T17:59:28.620Z,10.13
2022-12-24T18:01:33.041Z,11.50
2022-12-24T18:03:34.856Z,7.90
2022-12-24T18:05:36.728Z,7.90
2022-12-24T18:07:38.307Z,7.43
2022-12-24T18:09:40.001Z,7.00
2022-12-24T18:11:44.732Z,6.75
2022-12-24T18:13:47.063Z,10.15
2022-12-24T18:15:48.699Z,8.90
2022-12-24T18:17:53.747Z,8.75
2022-12-24T18:19:55.903Z,11.82
2022-12-24T18:22:00.286Z,10.82
2022-12-24T18:24:02.231Z,10.38
2022-12-24T18:26:05.707Z,8.25
2022-12-24T18:28:07.292Z,6.28
2022-12-24T18:30:10.473Z,12.82
2022-12-24T18:32:16.786Z,12.95
2022-12-24T18:34:18.421Z,16.98
2022-12-24T18:36:21.065Z,15.32
2022-12-24T18:38:22.651Z,19.05
2022-12-24T18:40:24.672Z,19.20
2022-12-24T18:42:28.996Z,21.73
2022-12-24T18:44:33.646Z,23.63
2022-12-24T18:46:39.225Z,29.48
2022-12-24T18:48:41.538Z,28.20
2022-12-24T18:50:43.235Z,30.50
2022-12-24T18:52:44.789Z,29.08
2022-12-24T18:54:48.850Z,30.48
2022-12-24T18:56:51.797Z,28.83
2022-12-24T18:58:59.101Z,27.88
2022-12-24T19:01:02.786Z,28.65
2022-12-24T19:03:08.362Z,27.10
2022-12-24T19:05:16.438Z,23.50
2022-12-24T19:07:25.645Z,24.35
2022-12-24T19:09:32.040Z,21.65
2022-12-24T19:11:35.133Z,17.90
2022-12-24T19:13:37.178Z,18.83
2022-12-24T19:15:41.900Z,18.27
2022-12-24T19:17:44.737Z,20.05
2022-12-24T19:19:50.995Z,14.90
2022-12-24T19:21:52.608Z,15.85
2022-12-24T19:23:54.575Z,22.67
2022-12-24T19:25:56.454Z,20.10
2022-12-24T19:27:58.123Z,21.65
2022-12-24T19:29:59.734Z,18.85
2022-12-24T19:32:05.055Z,18.55
2022-12-24T19:34:06.946Z,20.25
2022-12-24T19:36:11.086Z,19.15
2022-12-24T19:38:12.807Z,19.95
2022-12-24T19:40:16.992Z,24.63
2022-12-24T19:42:20.406Z,23.20
2022-12-24T19:44:22.075Z,26.55
2022-12-24T19:46:26.903Z,23.40
2022-12-24T19:48:28.528Z,23.45
2022-12-24T19:50:30.422Z,23.38
2022-12-24T19:52:32.081Z,22.63
2022-12-24T19:54:33.718Z,22.42
2022-12-24T19:56:37.060Z,22.77
2022-12-24T19:58:38.836Z,19.15
2022-12-24T20:00:40.497Z,21.15
2022-12-24T20:02:42.051Z,23.27
2022-12-24T20:04:43.681Z,21.65
2022-12-24T20:06:46.360Z,18.35
2022-12-24T20:08:48.297Z,15.38
2022-12-24T20:10:49.993Z,15.90
2022-12-24T20:12:51.770Z,15.52
2022-12-24T20:14:57.200Z,16.38
2022-12-24T20:17:01.614Z,12.20
2022-12-24T20:19:06.840Z,14.00
2022-12-24T20:21:11.169Z,13.77
2022-12-24T20:23:12.829Z,14.27
2022-12-24T20:25:14.553Z,14.65
2022-12-24T20:27:19.335Z,12.13
2022-12-24T20:29:20.881Z,13.32
2022-12-24T20:31:26.069Z,13.65
2022-12-24T20:33:27.563Z,14.02
2022-12-24T20:35:29.279Z,13.20
2022-12-24T20:37:32.937Z,15.02
2022-12-24T20:39:36.345Z,15.82
2022-12-24T20:41:37.957Z,16.02
2022-12-24T20:43:47.504Z,17.83
2022-12-24T20:45:55.140Z,15.90
2022-12-24T20:47:57.451Z,19.05
2022-12-24T20:49:59.011Z,16.05
2022-12-24T20:52:00.696Z,19.02
2022-12-24T20:54:05.249Z,22.60
2022-12-24T20:56:07.094Z,23.63
2022-12-24T20:58:11.782Z,30.88
2022-12-24T21:00:14.193Z,32.45
2022-12-24T21:02:19.437Z,34.63
2022-12-24T21:04:21.195Z,31.95
2022-12-24T21:06:24.474Z,30.35
2022-12-24T21:08:25.978Z,24.75
2022-12-24T21:10:33.867Z,23.40
2022-12-24T21:12:58.894Z,22.00
2022-12-24T21:15:00.556Z,17.75
2022-12-24T21:17:02.670Z,18.98
2022-12-24T21:19:11.387Z,16.17
2022-12-24T21:21:13.075Z,15.98
2022-12-24T21:23:14.678Z,17.20
2022-12-24T21:25:22.565Z,16.65
2022-12-24T21:27:24.493Z,16.63
2022-12-24T21:29:26.309Z,17.67
2022-12-24T21:31:28.183Z,17.40
2022-12-24T21:33:34.785Z,16.23
2022-12-24T21:35:40.492Z,17.75
2022-12-24T21:37:42.269Z,16.08
2022-12-24T21:39:49.923Z,15.38
2022-12-24T21:41:51.545Z,17.83
2022-12-24T21:43:53.232Z,15.40
2022-12-24T21:45:57.530Z,17.33
2022-12-24T21:47:59.314Z,16.85
2022-12-24T21:50:19.650Z,18.45
2022-12-24T21:52:21.620Z,16.73
2022-12-24T21:54:23.224Z,16.42
2022-12-24T21:56:24.791Z,15.73
2022-12-24T21:58:26.399Z,14.40
2022-12-24T22:00:30.708Z,13.73
2022-12-24T22:02:32.648Z,19.85
2022-12-24T22:04:34.957Z,22.15
2022-12-24T22:06:55.265Z,36.40
2022-12-24T22:09:18.541Z,37.45
2022-12-24T22:11:38.855Z,32.40
2022-12-24T22:13:42.260Z,31.65
2022-12-24T22:15:49.815Z,24.50
2022-12-24T22:17:51.748Z,23.45
2022-12-24T22:19:56.781Z,18.83
2022-12-24T22:22:02.169Z,19.50
2022-12-24T22:24:04.371Z,17.00
2022-12-24T22:26:17.486Z,17.23
2022-12-24T22:28:20.011Z,17.88
2022-12-24T22:30:21.545Z,14.85
2022-12-24T22:32:23.278Z,14.25
2022-12-24T22:34:27.649Z,16.30
2022-12-24T22:36:30.693Z,25.70
2022-12-24T22:38:33.575Z,15.23
2022-12-24T22:40:35.631Z,13.80
2022-12-24T22:42:37.455Z,13.77
2022-12-24T22:44:39.397Z,14.90
2022-12-24T22:46:41.012Z,12.98
2022-12-24T22:48:43.984Z,11.57
2022-12-24T22:50:45.466Z,13.35
2022-12-24T22:52:47.104Z,11.48
2022-12-24T22:54:48.667Z,22.40
2022-12-24T22:56:50.248Z,16.20
2022-12-24T22:58:56.469Z,19.63
2022-12-24T23:00:59.572Z,24.13
2022-12-24T23:03:01.776Z,20.63
2022-12-24T23:05:03.722Z,21.25
2022-12-24T23:07:07.457Z,19.30
2022-12-24T23:09:12.488Z,18.83
2022-12-24T23:11:15.223Z,18.48
2022-12-24T23:13:35.915Z,17.85
2022-12-24T23:15:39.076Z,19.60
2022-12-24T23:17:40.849Z,21.27
2022-12-24T23:19:42.823Z,23.98
2022-12-24T23:21:44.328Z,24.75
2022-12-24T23:23:46.697Z,28.65
2022-12-24T23:25:48.304Z,31.92
2022-12-24T23:27:52.523Z,40.58
2022-12-24T23:29:54.024Z,43.92
2022-12-24T23:31:55.691Z,43.42
2022-12-24T23:33:57.233Z,43.42
2022-12-24T23:35:58.907Z,52.25
2022-12-24T23:38:01.571Z,47.47
2022-12-24T23:40:04.142Z,56.00
2022-12-24T23:42:08.565Z,58.03
2022-12-24T23:44:12.751Z,54.08
2022-12-24T23:46:15.756Z,51.20
2022-12-24T23:48:17.803Z,50.00
2022-12-24T23:50:22.357Z,43.72
2022-12-24T23:52:24.176Z,39.03
2022-12-24T23:54:25.832Z,33.25
2022-12-24T23:56:27.247Z,29.92
2022-12-24T23:58:29.140Z,24.33
